sensor_id;sensor_type;location;lat;lon;timestamp;pressure;altitude;pressure_sealevel;temperature;humidity
62508;BME280;48556;51.972;4.624;2023-03-04T00:01:05;102730.06;;;9.99;56.64
62508;BME280;48556;51.972;4.624;2023-03-04T00:03:48;102734.44;;;10.00;56.63
62508;BME280;48556;51.972;4.624;2023-03-04T00:06:27;102736.28;;;10.04;56.60
62508;BME280;48556;51.972;4.624;2023-03-04T00:09:00;102734.06;;;9.82;57.81
62508;BME280;48556;51.972;4.624;2023-03-04T00:11:36;102741.03;;;10.24;56.24
62508;BME280;48556;51.972;4.624;2023-03-04T00:14:04;102741.13;;;10.27;56.00
62508;BME280;48556;51.972;4.624;2023-03-04T00:16:47;102741.94;;;10.23;55.90
62508;BME280;48556;51.972;4.624;2023-03-04T00:19:38;102739.72;;;10.45;55.70
62508;BME280;48556;51.972;4.624;2023-03-04T00:22:44;102739.22;;;10.64;55.18
62508;BME280;48556;51.972;4.624;2023-03-04T00:25:42;102743.09;;;10.37;55.31
62508;BME280;48556;51.972;4.624;2023-03-04T00:28:38;102741.72;;;10.56;55.63
62508;BME280;48556;51.972;4.624;2023-03-04T00:31:33;102746.25;;;10.65;54.87
62508;BME280;48556;51.972;4.624;2023-03-04T00:34:11;102743.31;;;10.48;55.34
62508;BME280;48556;51.972;4.624;2023-03-04T00:37:02;102739.00;;;10.53;55.68
62508;BME280;48556;51.972;4.624;2023-03-04T00:39:28;102736.19;;;10.90;54.64
62508;BME280;48556;51.972;4.624;2023-03-04T00:42:16;102743.66;;;10.67;55.18
62508;BME280;48556;51.972;4.624;2023-03-04T00:45:18;102737.94;;;10.42;55.58
62508;BME280;48556;51.972;4.624;2023-03-04T00:48:25;102733.72;;;10.07;56.80
62508;BME280;48556;51.972;4.624;2023-03-04T00:51:28;102729.63;;;9.79;57.62
62508;BME280;48556;51.972;4.624;2023-03-04T00:53:59;102732.78;;;10.05;57.07
62508;BME280;48556;51.972;4.624;2023-03-04T00:56:38;102737.56;;;10.25;56.58
62508;BME280;48556;51.972;4.624;2023-03-04T00:59:31;102733.84;;;10.14;56.73
62508;BME280;48556;51.972;4.624;2023-03-04T01:02:29;102737.00;;;10.38;56.56
62508;BME280;48556;51.972;4.624;2023-03-04T01:04:57;102732.38;;;10.30;56.77
62508;BME280;48556;51.972;4.624;2023-03-04T01:07:34;102734.66;;;10.54;56.12
62508;BME280;48556;51.972;4.624;2023-03-04T01:10:25;102737.53;;;10.23;57.64
62508;BME280;48556;51.972;4.624;2023-03-04T01:13:22;102730.19;;;9.64;59.17
62508;BME280;48556;51.972;4.624;2023-03-04T01:16:34;102734.56;;;9.65;58.54
62508;BME280;48556;51.972;4.624;2023-03-04T01:19:28;102724.50;;;9.46;59.70
62508;BME280;48556;51.972;4.624;2023-03-04T01:22:09;102738.59;;;9.49;59.94
62508;BME280;48556;51.972;4.624;2023-03-04T01:24:57;102730.69;;;9.89;58.90
62508;BME280;48556;51.972;4.624;2023-03-04T01:27:56;102724.34;;;9.78;59.03
62508;BME280;48556;51.972;4.624;2023-03-04T01:30:55;102720.44;;;10.01;58.36
62508;BME280;48556;51.972;4.624;2023-03-04T01:33:21;102713.06;;;10.26;57.51
62508;BME280;48556;51.972;4.624;2023-03-04T01:35:46;102714.47;;;10.10;57.48
62508;BME280;48556;51.972;4.624;2023-03-04T01:38:24;102708.97;;;10.40;57.08
62508;BME280;48556;51.972;4.624;2023-03-04T01:41:06;102703.13;;;10.55;56.74
62508;BME280;48556;51.972;4.624;2023-03-04T01:43:54;102711.84;;;10.54;56.77
62508;BME280;48556;51.972;4.624;2023-03-04T01:46:53;102702.78;;;9.94;58.44
62508;BME280;48556;51.972;4.624;2023-03-04T01:49:21;102703.69;;;9.96;58.81
62508;BME280;48556;51.972;4.624;2023-03-04T01:51:50;102697.41;;;9.88;59.00
62508;BME280;48556;51.972;4.624;2023-03-04T01:54:44;102693.50;;;9.69;59.36
62508;BME280;48556;51.972;4.624;2023-03-04T01:57:45;102693.22;;;9.55;59.83
62508;BME280;48556;51.972;4.624;2023-03-04T02:00:26;102681.94;;;9.21;61.14
62508;BME280;48556;51.972;4.624;2023-03-04T02:03:17;102686.16;;;9.54;59.20
62508;BME280;48556;51.972;4.624;2023-03-04T02:05:48;102677.13;;;9.39;59.38
62508;BME280;48556;51.972;4.624;2023-03-04T02:08:20;102679.31;;;9.21;59.63
62508;BME280;48556;51.972;4.624;2023-03-04T02:11:12;102677.00;;;9.76;58.34
62508;BME280;48556;51.972;4.624;2023-03-04T02:14:13;102666.63;;;9.39;59.09
62508;BME280;48556;51.972;4.624;2023-03-04T02:17:24;102663.97;;;9.38;59.03
62508;BME280;48556;51.972;4.624;2023-03-04T02:23:22;102662.69;;;9.22;59.27
62508;BME280;48556;51.972;4.624;2023-03-04T02:26:26;102662.00;;;8.91;59.91
62508;BME280;48556;51.972;4.624;2023-03-04T02:29:29;102657.81;;;8.99;59.31
62508;BME280;48556;51.972;4.624;2023-03-04T02:32:29;102657.03;;;9.03;59.37
62508;BME280;48556;51.972;4.624;2023-03-04T02:35:32;102654.75;;;8.81;59.49
62508;BME280;48556;51.972;4.624;2023-03-04T02:38:12;102646.66;;;8.71;59.62
62508;BME280;48556;51.972;4.624;2023-03-04T02:41:10;102646.22;;;8.54;59.98
62508;BME280;48556;51.972;4.624;2023-03-04T02:44:14;102651.13;;;8.76;59.25
62508;BME280;48556;51.972;4.624;2023-03-04T02:47:11;102644.72;;;8.64;59.11
62508;BME280;48556;51.972;4.624;2023-03-04T02:49:38;102638.91;;;9.13;58.26
62508;BME280;48556;51.972;4.624;2023-03-04T02:52:12;102640.59;;;9.12;57.25
62508;BME280;48556;51.972;4.624;2023-03-04T02:55:00;102636.69;;;9.31;57.34
62508;BME280;48556;51.972;4.624;2023-03-04T02:57:29;102633.38;;;9.41;57.09
62508;BME280;48556;51.972;4.624;2023-03-04T03:00:16;102638.75;;;9.46;56.81
62508;BME280;48556;51.972;4.624;2023-03-04T03:03:02;102637.59;;;9.35;56.96
62508;BME280;48556;51.972;4.624;2023-03-04T03:06:07;102634.25;;;9.02;58.59
62508;BME280;48556;51.972;4.624;2023-03-04T03:09:02;102631.31;;;9.68;56.43
62508;BME280;48556;51.972;4.624;2023-03-04T03:11:36;102629.72;;;9.76;56.03
62508;BME280;48556;51.972;4.624;2023-03-04T03:14:02;102634.63;;;9.57;56.26
62508;BME280;48556;51.972;4.624;2023-03-04T03:16:28;102625.53;;;9.86;56.10
62508;BME280;48556;51.972;4.624;2023-03-04T03:18:53;102630.28;;;9.61;56.84
62508;BME280;48556;51.972;4.624;2023-03-04T03:21:32;102633.41;;;9.43;58.34
62508;BME280;48556;51.972;4.624;2023-03-04T03:24:24;102631.28;;;9.25;59.02
62508;BME280;48556;51.972;4.624;2023-03-04T03:27:11;102623.72;;;8.99;60.99
62508;BME280;48556;51.972;4.624;2023-03-04T03:30:10;102630.88;;;9.06;61.65
62508;BME280;48556;51.972;4.624;2023-03-04T03:32:40;102629.22;;;8.74;62.47
62508;BME280;48556;51.972;4.624;2023-03-04T03:35:35;102623.84;;;9.05;61.77
62508;BME280;48556;51.972;4.624;2023-03-04T03:38:14;102626.84;;;9.21;61.29
62508;BME280;48556;51.972;4.624;2023-03-04T03:40:56;102632.91;;;8.82;61.53
62508;BME280;48556;51.972;4.624;2023-03-04T03:43:26;102629.34;;;8.78;61.73
62508;BME280;48556;51.972;4.624;2023-03-04T03:45:55;102628.78;;;8.57;61.18
62508;BME280;48556;51.972;4.624;2023-03-04T03:48:40;102632.22;;;8.89;59.99
62508;BME280;48556;51.972;4.624;2023-03-04T03:51:35;102627.84;;;8.89;59.85
62508;BME280;48556;51.972;4.624;2023-03-04T03:54:29;102631.34;;;9.27;59.02
62508;BME280;48556;51.972;4.624;2023-03-04T03:57:11;102629.53;;;9.24;58.66
62508;BME280;48556;51.972;4.624;2023-03-04T03:59:36;102625.84;;;9.16;58.85
62508;BME280;48556;51.972;4.624;2023-03-04T04:02:02;102623.56;;;9.33;58.43
62508;BME280;48556;51.972;4.624;2023-03-04T04:04:27;102627.38;;;9.47;57.34
62508;BME280;48556;51.972;4.624;2023-03-04T04:06:56;102625.78;;;9.13;58.91
62508;BME280;48556;51.972;4.624;2023-03-04T04:09:21;102626.88;;;8.86;60.21
62508;BME280;48556;51.972;4.624;2023-03-04T04:12:03;102632.78;;;8.77;61.20
62508;BME280;48556;51.972;4.624;2023-03-04T04:14:57;102630.56;;;8.94;60.97
62508;BME280;48556;51.972;4.624;2023-03-04T04:17:58;102631.81;;;9.09;60.07
62508;BME280;48556;51.972;4.624;2023-03-04T04:20:51;102627.22;;;9.01;60.77
62508;BME280;48556;51.972;4.624;2023-03-04T04:23:54;102638.78;;;8.71;61.67
62508;BME280;48556;51.972;4.624;2023-03-04T04:26:41;102638.69;;;8.67;61.55
62508;BME280;48556;51.972;4.624;2023-03-04T04:29:27;102621.63;;;8.86;62.06
62508;BME280;48556;51.972;4.624;2023-03-04T04:32:23;102633.47;;;8.68;61.54
62508;BME280;48556;51.972;4.624;2023-03-04T04:35:03;102632.63;;;9.06;60.31
62508;BME280;48556;51.972;4.624;2023-03-04T04:37:47;102634.97;;;8.95;60.25
62508;BME280;48556;51.972;4.624;2023-03-04T04:40:16;102638.34;;;8.53;61.66
62508;BME280;48556;51.972;4.624;2023-03-04T04:42:42;102640.00;;;8.51;61.55
62508;BME280;48556;51.972;4.624;2023-03-04T04:45:25;102642.00;;;8.60;61.84
62508;BME280;48556;51.972;4.624;2023-03-04T04:48:11;102638.16;;;8.47;61.21
62508;BME280;48556;51.972;4.624;2023-03-04T04:50:59;102631.94;;;8.43;61.80
62508;BME280;48556;51.972;4.624;2023-03-04T04:53:46;102640.56;;;8.72;60.74
62508;BME280;48556;51.972;4.624;2023-03-04T04:56:19;102645.00;;;8.42;61.31
62508;BME280;48556;51.972;4.624;2023-03-04T04:59:05;102642.97;;;8.31;61.31
62508;BME280;48556;51.972;4.624;2023-03-04T05:02:06;102649.91;;;8.29;61.34
62508;BME280;48556;51.972;4.624;2023-03-04T05:04:36;102640.97;;;8.21;62.29
62508;BME280;48556;51.972;4.624;2023-03-04T05:07:02;102646.50;;;8.65;61.98
62508;BME280;48556;51.972;4.624;2023-03-04T05:09:30;102648.25;;;8.66;61.20
62508;BME280;48556;51.972;4.624;2023-03-04T05:11:56;102650.38;;;9.18;59.93
62508;BME280;48556;51.972;4.624;2023-03-04T05:14:26;102642.34;;;9.10;59.95
62508;BME280;48556;51.972;4.624;2023-03-04T05:17:15;102645.47;;;8.95;59.66
62508;BME280;48556;51.972;4.624;2023-03-04T05:19:47;102638.03;;;9.14;59.36
62508;BME280;48556;51.972;4.624;2023-03-04T05:22:12;102636.88;;;9.40;58.69
62508;BME280;48556;51.972;4.624;2023-03-04T05:24:39;102638.16;;;9.18;59.79
62508;BME280;48556;51.972;4.624;2023-03-04T05:27:09;102635.03;;;9.36;58.93
62508;BME280;48556;51.972;4.624;2023-03-04T05:29:49;102641.63;;;9.58;58.58
62508;BME280;48556;51.972;4.624;2023-03-04T05:32:42;102641.69;;;9.60;58.95
62508;BME280;48556;51.972;4.624;2023-03-04T05:35:43;102642.63;;;9.65;58.54
62508;BME280;48556;51.972;4.624;2023-03-04T05:38:31;102642.53;;;9.59;59.16
62508;BME280;48556;51.972;4.624;2023-03-04T05:41:02;102634.97;;;9.74;59.06
62508;BME280;48556;51.972;4.624;2023-03-04T05:43:30;102636.88;;;9.83;58.35
62508;BME280;48556;51.972;4.624;2023-03-04T05:45:56;102636.66;;;9.72;59.70
62508;BME280;48556;51.972;4.624;2023-03-04T05:48:47;102644.69;;;9.39;61.11
62508;BME280;48556;51.972;4.624;2023-03-04T05:51:41;102645.44;;;9.33;61.47
62508;BME280;48556;51.972;4.624;2023-03-04T05:54:23;102638.53;;;9.37;62.23
62508;BME280;48556;51.972;4.624;2023-03-04T05:56:56;102636.53;;;9.25;63.06
62508;BME280;48556;51.972;4.624;2023-03-04T05:59:22;102633.38;;;9.41;63.09
62508;BME280;48556;51.972;4.624;2023-03-04T06:02:13;102633.88;;;9.23;63.23
62508;BME280;48556;51.972;4.624;2023-03-04T06:08:02;102625.56;;;9.87;61.74
62508;BME280;48556;51.972;4.624;2023-03-04T06:10:56;102630.72;;;10.29;60.00
62508;BME280;48556;51.972;4.624;2023-03-04T06:13:48;102630.84;;;9.89;61.62
62508;BME280;48556;51.972;4.624;2023-03-04T06:16:14;102625.84;;;10.01;61.29
62508;BME280;48556;51.972;4.624;2023-03-04T06:18:49;102627.47;;;9.50;62.05
62508;BME280;48556;51.972;4.624;2023-03-04T06:21:15;102634.75;;;10.09;61.02
62508;BME280;48556;51.972;4.624;2023-03-04T06:23:58;102631.28;;;10.11;60.51
62508;BME280;48556;51.972;4.624;2023-03-04T06:26:40;102636.69;;;9.31;63.23
62508;BME280;48556;51.972;4.624;2023-03-04T06:29:37;102640.94;;;9.67;62.10
62508;BME280;48556;51.972;4.624;2023-03-04T06:32:16;102642.59;;;10.06;60.69
62508;BME280;48556;51.972;4.624;2023-03-04T06:34:41;102642.84;;;10.20;60.49
62508;BME280;48556;51.972;4.624;2023-03-04T06:37:28;102645.19;;;10.51;59.45
62508;BME280;48556;51.972;4.624;2023-03-04T06:40:21;102654.13;;;10.15;60.05
62508;BME280;48556;51.972;4.624;2023-03-04T06:42:58;102642.91;;;9.78;61.24
62508;BME280;48556;51.972;4.624;2023-03-04T06:45:37;102641.69;;;10.06;60.58
62508;BME280;48556;51.972;4.624;2023-03-04T06:48:12;102645.06;;;9.99;60.86
62508;BME280;48556;51.972;4.624;2023-03-04T06:51:12;102640.56;;;10.37;59.72
62508;BME280;48556;51.972;4.624;2023-03-04T06:54:02;102648.00;;;10.16;60.00
62508;BME280;48556;51.972;4.624;2023-03-04T06:56:54;102648.19;;;10.25;59.61
62508;BME280;48556;51.972;4.624;2023-03-04T06:59:19;102647.63;;;10.41;59.29
62508;BME280;48556;51.972;4.624;2023-03-04T07:01:54;102658.25;;;10.48;59.71
62508;BME280;48556;51.972;4.624;2023-03-04T07:04:20;102653.59;;;9.87;60.74
62508;BME280;48556;51.972;4.624;2023-03-04T07:06:52;102661.09;;;10.13;60.98
62508;BME280;48556;51.972;4.624;2023-03-04T07:09:54;102664.03;;;10.30;60.28
62508;BME280;48556;51.972;4.624;2023-03-04T07:12:35;102653.84;;;9.99;61.45
62508;BME280;48556;51.972;4.624;2023-03-04T07:15:00;102659.31;;;10.12;61.36
62508;BME280;48556;51.972;4.624;2023-03-04T07:17:27;102664.16;;;10.34;61.03
62508;BME280;48556;51.972;4.624;2023-03-04T07:19:57;102663.09;;;10.24;61.12
62508;BME280;48556;51.972;4.624;2023-03-04T07:22:24;102670.16;;;10.27;60.50
62508;BME280;48556;51.972;4.624;2023-03-04T07:25:05;102660.66;;;9.89;61.26
62508;BME280;48556;51.972;4.624;2023-03-04T07:27:32;102669.09;;;9.74;61.87
62508;BME280;48556;51.972;4.624;2023-03-04T07:30:10;102668.47;;;9.44;64.07
62508;BME280;48556;51.972;4.624;2023-03-04T07:32:52;102678.47;;;9.62;64.27
62508;BME280;48556;51.972;4.624;2023-03-04T07:35:17;102679.25;;;9.57;65.52
62508;BME280;48556;51.972;4.624;2023-03-04T07:37:43;102676.97;;;9.33;67.68
62508;BME280;48556;51.972;4.624;2023-03-04T07:40:19;102685.91;;;9.41;68.81
62508;BME280;48556;51.972;4.624;2023-03-04T07:43:03;102682.53;;;9.49;69.20
62508;BME280;48556;51.972;4.624;2023-03-04T07:45:29;102680.97;;;9.57;68.51
62508;BME280;48556;51.972;4.624;2023-03-04T07:48:19;102689.78;;;10.02;67.85
62508;BME280;48556;51.972;4.624;2023-03-04T07:50:50;102687.81;;;9.90;67.78
62508;BME280;48556;51.972;4.624;2023-03-04T07:53:35;102688.97;;;9.62;69.45
62508;BME280;48556;51.972;4.624;2023-03-04T07:56:22;102700.28;;;10.00;67.53
62508;BME280;48556;51.972;4.624;2023-03-04T07:59:01;102702.84;;;9.54;68.63
62508;BME280;48556;51.972;4.624;2023-03-04T08:01:36;102705.88;;;9.74;68.01
62508;BME280;48556;51.972;4.624;2023-03-04T08:04:06;102705.69;;;9.67;68.21
62508;BME280;48556;51.972;4.624;2023-03-04T08:06:32;102701.50;;;9.75;68.29
62508;BME280;48556;51.972;4.624;2023-03-04T08:09:01;102699.47;;;10.04;67.80
62508;BME280;48556;51.972;4.624;2023-03-04T08:11:37;102696.34;;;10.70;65.58
62508;BME280;48556;51.972;4.624;2023-03-04T08:14:07;102705.72;;;10.54;65.68
62508;BME280;48556;51.972;4.624;2023-03-04T08:16:42;102707.06;;;10.33;65.86
62508;BME280;48556;51.972;4.624;2023-03-04T08:19:12;102704.41;;;10.32;65.61
62508;BME280;48556;51.972;4.624;2023-03-04T08:21:37;102702.47;;;9.79;67.56
62508;BME280;48556;51.972;4.624;2023-03-04T08:24:03;102707.28;;;10.42;66.02
62508;BME280;48556;51.972;4.624;2023-03-04T08:26:52;102701.75;;;10.30;65.68
62508;BME280;48556;51.972;4.624;2023-03-04T08:29:28;102705.22;;;10.75;64.51
62508;BME280;48556;51.972;4.624;2023-03-04T08:31:54;102704.78;;;10.50;65.86
62508;BME280;48556;51.972;4.624;2023-03-04T08:34:25;102703.09;;;10.09;67.44
62508;BME280;48556;51.972;4.624;2023-03-04T08:36:52;102700.72;;;10.22;67.20
62508;BME280;48556;51.972;4.624;2023-03-04T08:39:18;102697.13;;;10.64;65.88
62508;BME280;48556;51.972;4.624;2023-03-04T08:41:45;102705.81;;;10.60;65.28
62508;BME280;48556;51.972;4.624;2023-03-04T08:44:23;102690.66;;;10.97;64.74
62508;BME280;48556;51.972;4.624;2023-03-04T08:46:56;102692.88;;;10.71;65.14
62508;BME280;48556;51.972;4.624;2023-03-04T08:49:22;102701.50;;;10.62;65.95
62508;BME280;48556;51.972;4.624;2023-03-04T08:51:58;102692.16;;;10.83;65.51
62508;BME280;48556;51.972;4.624;2023-03-04T08:54:31;102695.72;;;10.85;65.26
62508;BME280;48556;51.972;4.624;2023-03-04T08:56:56;102698.41;;;10.89;65.06
62508;BME280;48556;51.972;4.624;2023-03-04T08:59:42;102688.69;;;10.84;65.46
62508;BME280;48556;51.972;4.624;2023-03-04T09:02:09;102689.94;;;10.54;66.03
62508;BME280;48556;51.972;4.624;2023-03-04T09:04:34;102682.94;;;10.56;66.86
62508;BME280;48556;51.972;4.624;2023-03-04T09:07:00;102692.06;;;10.29;66.54
62508;BME280;48556;51.972;4.624;2023-03-04T09:09:26;102685.28;;;10.39;69.22
62508;BME280;48556;51.972;4.624;2023-03-04T09:11:52;102685.44;;;10.47;70.65
62508;BME280;48556;51.972;4.624;2023-03-04T09:14:17;102693.25;;;10.43;71.96
62508;BME280;48556;51.972;4.624;2023-03-04T09:16:43;102681.59;;;10.32;71.78
62508;BME280;48556;51.972;4.624;2023-03-04T09:19:09;102678.94;;;10.29;72.45
62508;BME280;48556;51.972;4.624;2023-03-04T09:21:43;102671.78;;;10.69;70.56
62508;BME280;48556;51.972;4.624;2023-03-04T09:24:21;102673.84;;;10.87;71.16
62508;BME280;48556;51.972;4.624;2023-03-04T09:26:50;102684.00;;;10.66;70.96
62508;BME280;48556;51.972;4.624;2023-03-04T09:29:16;102680.66;;;10.74;71.42
62508;BME280;48556;51.972;4.624;2023-03-04T09:31:48;102679.50;;;10.60;71.51
62508;BME280;48556;51.972;4.624;2023-03-04T09:34:13;102681.38;;;10.20;72.64
62508;BME280;48556;51.972;4.624;2023-03-04T09:36:57;102671.13;;;10.83;70.20
62508;BME280;48556;51.972;4.624;2023-03-04T09:40:15;102674.94;;;11.02;69.05
62508;BME280;48556;51.972;4.624;2023-03-04T09:43:06;102678.72;;;10.66;69.41
62508;BME280;48556;51.972;4.624;2023-03-04T09:49:27;102674.28;;;10.16;74.14
62508;BME280;48556;51.972;4.624;2023-03-04T10:09:13;102678.66;;;10.61;76.23
62508;BME280;48556;51.972;4.624;2023-03-04T10:15:53;102678.25;;;10.39;75.73
62508;BME280;48556;51.972;4.624;2023-03-04T10:18:49;102683.53;;;10.90;74.27
62508;BME280;48556;51.972;4.624;2023-03-04T10:22:14;102681.06;;;10.49;77.83
62508;BME280;48556;51.972;4.624;2023-03-04T10:25:19;102676.38;;;10.34;78.35
62508;BME280;48556;51.972;4.624;2023-03-04T10:34:45;102679.19;;;10.41;79.52
62508;BME280;48556;51.972;4.624;2023-03-04T10:37:47;102675.22;;;10.65;79.42
62508;BME280;48556;51.972;4.624;2023-03-04T10:43:49;102669.44;;;10.86;76.06
62508;BME280;48556;51.972;4.624;2023-03-04T10:46:38;102666.22;;;11.06;73.40
62508;BME280;48556;51.972;4.624;2023-03-04T10:55:45;102651.34;;;11.08;69.43
62508;BME280;48556;51.972;4.624;2023-03-04T10:58:35;102652.81;;;11.49;69.26
62508;BME280;48556;51.972;4.624;2023-03-04T11:01:38;102650.72;;;11.93;67.19
62508;BME280;48556;51.972;4.624;2023-03-04T11:04:25;102651.09;;;12.27;65.57
62508;BME280;48556;51.972;4.624;2023-03-04T11:07:42;102647.97;;;11.86;63.15
62508;BME280;48556;51.972;4.624;2023-03-04T11:10:42;102638.25;;;11.82;63.99
62508;BME280;48556;51.972;4.624;2023-03-04T11:13:23;102641.00;;;11.91;63.54
62508;BME280;48556;51.972;4.624;2023-03-04T11:20:59;102628.06;;;11.37;63.79
62508;BME280;48556;51.972;4.624;2023-03-04T11:26:29;102634.63;;;11.04;71.55
62508;BME280;48556;51.972;4.624;2023-03-04T11:32:13;102638.63;;;11.39;71.83
62508;BME280;48556;51.972;4.624;2023-03-04T11:35:23;102628.97;;;11.41;70.54
62508;BME280;48556;51.972;4.624;2023-03-04T11:38:07;102638.59;;;10.77;70.64
62508;BME280;48556;51.972;4.624;2023-03-04T11:40:52;102627.59;;;11.05;69.23
62508;BME280;48556;51.972;4.624;2023-03-04T11:43:34;102628.69;;;11.91;66.44
62508;BME280;48556;51.972;4.624;2023-03-04T11:58:58;102609.84;;;12.34;63.60
62508;BME280;48556;51.972;4.624;2023-03-04T12:07:24;102608.69;;;11.34;76.25
62508;BME280;48556;51.972;4.624;2023-03-04T12:10:43;102604.22;;;11.26;76.01
62508;BME280;48556;51.972;4.624;2023-03-04T12:22:50;102586.34;;;12.65;67.86
62508;BME280;48556;51.972;4.624;2023-03-04T12:25:34;102593.19;;;14.15;60.40
62508;BME280;48556;51.972;4.624;2023-03-04T12:28:34;102578.94;;;15.25;54.82
62508;BME280;48556;51.972;4.624;2023-03-04T12:35:27;102571.31;;;17.84;46.94
62508;BME280;48556;51.972;4.624;2023-03-04T12:38:43;102567.69;;;17.88;45.14
62508;BME280;48556;51.972;4.624;2023-03-04T12:45:17;102561.44;;;14.65;53.35
62508;BME280;48556;51.972;4.624;2023-03-04T12:54:55;102555.25;;;14.35;54.54
62508;BME280;48556;51.972;4.624;2023-03-04T12:57:34;102563.09;;;13.61;55.55
62508;BME280;48556;51.972;4.624;2023-03-04T13:10:00;102540.44;;;12.43;55.78
62508;BME280;48556;51.972;4.624;2023-03-04T13:19:46;102531.00;;;11.71;59.92
62508;BME280;48556;51.972;4.624;2023-03-04T13:22:45;102535.09;;;11.43;61.33
62508;BME280;48556;51.972;4.624;2023-03-04T13:26:16;102542.81;;;11.29;61.25
62508;BME280;48556;51.972;4.624;2023-03-04T13:29:43;102529.75;;;11.40;61.79
62508;BME280;48556;51.972;4.624;2023-03-04T13:32:48;102529.69;;;11.34;61.68
62508;BME280;48556;51.972;4.624;2023-03-04T13:35:59;102527.38;;;11.61;62.25
62508;BME280;48556;51.972;4.624;2023-03-04T13:39:37;102531.69;;;11.55;60.73
62508;BME280;48556;51.972;4.624;2023-03-04T13:45:54;102514.69;;;14.36;51.88
62508;BME280;48556;51.972;4.624;2023-03-04T13:48:31;102518.03;;;15.18;47.52
62508;BME280;48556;51.972;4.624;2023-03-04T13:51:39;102512.03;;;14.33;48.46
62508;BME280;48556;51.972;4.624;2023-03-04T13:54:33;102519.78;;;13.25;49.84
62508;BME280;48556;51.972;4.624;2023-03-04T13:57:29;102512.63;;;12.99;51.50
62508;BME280;48556;51.972;4.624;2023-03-04T14:00:27;102513.75;;;13.61;50.56
62508;BME280;48556;51.972;4.624;2023-03-04T14:03:31;102511.13;;;13.57;50.34
62508;BME280;48556;51.972;4.624;2023-03-04T14:06:21;102503.22;;;13.94;49.54
62508;BME280;48556;51.972;4.624;2023-03-04T14:12:22;102505.19;;;16.88;42.91
62508;BME280;48556;51.972;4.624;2023-03-04T14:15:32;102496.81;;;17.84;39.07
62508;BME280;48556;51.972;4.624;2023-03-04T14:18:22;102502.22;;;18.34;37.22
62508;BME280;48556;51.972;4.624;2023-03-04T14:21:35;102495.63;;;18.04;38.67
62508;BME280;48556;51.972;4.624;2023-03-04T14:25:00;102489.47;;;18.50;37.57
62508;BME280;48556;51.972;4.624;2023-03-04T14:28:13;102491.19;;;16.75;40.61
62508;BME280;48556;51.972;4.624;2023-03-04T14:31:23;102496.63;;;15.59;43.50
62508;BME280;48556;51.972;4.624;2023-03-04T14:34:01;102497.94;;;14.39;47.50
62508;BME280;48556;51.972;4.624;2023-03-04T14:37:25;102488.06;;;13.17;51.71
62508;BME280;48556;51.972;4.624;2023-03-04T14:39:58;102497.06;;;12.05;58.10
62508;BME280;48556;51.972;4.624;2023-03-04T14:42:54;102501.03;;;11.63;59.02
62508;BME280;48556;51.972;4.624;2023-03-04T14:45:50;102493.47;;;11.13;60.17
62508;BME280;48556;51.972;4.624;2023-03-04T14:48:51;102503.63;;;10.85;61.83
62508;BME280;48556;51.972;4.624;2023-03-04T14:52:04;102484.16;;;10.72;61.12
62508;BME280;48556;51.972;4.624;2023-03-04T14:55:07;102491.44;;;10.90;60.14
62508;BME280;48556;51.972;4.624;2023-03-04T14:57:51;102470.31;;;10.88;60.60
62508;BME280;48556;51.972;4.624;2023-03-04T15:00:27;102477.22;;;11.52;59.30
62508;BME280;48556;51.972;4.624;2023-03-04T15:03:25;102478.69;;;12.16;56.24
62508;BME280;48556;51.972;4.624;2023-03-04T15:09:50;102473.44;;;12.21;50.20
62508;BME280;48556;51.972;4.624;2023-03-04T15:12:31;102474.81;;;11.77;49.95
62508;BME280;48556;51.972;4.624;2023-03-04T15:15:37;102464.41;;;11.92;50.92
62508;BME280;48556;51.972;4.624;2023-03-04T15:19:22;102473.19;;;11.90;51.23
62508;BME280;48556;51.972;4.624;2023-03-04T15:22:05;102468.63;;;11.70;51.71
62508;BME280;48556;51.972;4.624;2023-03-04T15:24:42;102470.25;;;11.59;51.56
62508;BME280;48556;51.972;4.624;2023-03-04T15:27:11;102470.88;;;11.33;51.57
62508;BME280;48556;51.972;4.624;2023-03-04T15:30:22;102456.16;;;10.78;53.49
62508;BME280;48556;51.972;4.624;2023-03-04T15:33:22;102460.69;;;10.86;53.34
62508;BME280;48556;51.972;4.624;2023-03-04T15:36:29;102461.31;;;10.69;53.16
62508;BME280;48556;51.972;4.624;2023-03-04T15:39:30;102458.56;;;10.60;54.48
62508;BME280;48556;51.972;4.624;2023-03-04T15:42:55;102458.84;;;10.80;53.57
62508;BME280;48556;51.972;4.624;2023-03-04T15:45:39;102460.75;;;10.92;53.53
62508;BME280;48556;51.972;4.624;2023-03-04T15:48:08;102453.25;;;10.57;55.92
62508;BME280;48556;51.972;4.624;2023-03-04T15:51:13;102450.47;;;10.46;56.74
62508;BME280;48556;51.972;4.624;2023-03-04T15:54:01;102459.00;;;10.31;57.65
62508;BME280;48556;51.972;4.624;2023-03-04T15:56:50;102452.31;;;10.52;57.23
62508;BME280;48556;51.972;4.624;2023-03-04T15:59:26;102452.66;;;10.76;56.93
62508;BME280;48556;51.972;4.624;2023-03-04T16:02:26;102450.06;;;10.80;57.49
62508;BME280;48556;51.972;4.624;2023-03-04T16:04:54;102452.00;;;10.93;57.66
62508;BME280;48556;51.972;4.624;2023-03-04T16:07:49;102445.31;;;10.51;58.29
62508;BME280;48556;51.972;4.624;2023-03-04T16:10:39;102448.69;;;10.45;57.31
62508;BME280;48556;51.972;4.624;2023-03-04T16:13:33;102442.09;;;10.75;56.82
62508;BME280;48556;51.972;4.624;2023-03-04T16:16:21;102442.28;;;10.87;56.40
62508;BME280;48556;51.972;4.624;2023-03-04T16:19:28;102446.53;;;10.77;56.69
62508;BME280;48556;51.972;4.624;2023-03-04T16:22:35;102444.97;;;10.31;58.74
62508;BME280;48556;51.972;4.624;2023-03-04T16:26:25;102449.16;;;10.76;58.17
62508;BME280;48556;51.972;4.624;2023-03-04T16:29:16;102444.13;;;10.33;59.62
62508;BME280;48556;51.972;4.624;2023-03-04T16:32:12;102452.63;;;10.17;59.77
62508;BME280;48556;51.972;4.624;2023-03-04T16:35:04;102442.28;;;10.26;59.36
62508;BME280;48556;51.972;4.624;2023-03-04T16:37:47;102434.88;;;10.58;58.61